Time;durP1;ratioP1;P1;durP2;ratioP2;P2;SDS_P1;SDS_P2;PMS_P1;PMS_P2;Temp;Humidity;BMP_temperature;BMP_pressure;BME280_temperature;BME280_humidity;BME280_pressure;Samples;Min_cycle;Max_cycle;Signal;HPM_P1;HPM_P2
2023/03/04 00:01:15;;;;;;;12.45;1.75;;;6.20;99.90;;;;;;5094576;27;20404;-69
2023/03/04 00:03:41;;;;;;;12.98;2.05;;;6.20;99.90;;;;;;5103743;28;20055;-70
2023/03/04 00:06:07;;;;;;;15.18;2.50;;;6.20;99.90;;;;;;5094181;28;20124;-69
2023/03/04 00:08:33;;;;;;;14.80;2.03;;;6.20;99.90;;;;;;5059644;28;20044;-70
2023/03/04 00:10:59;;;;;;;10.27;1.80;;;6.30;99.90;;;;;;5077662;28;20046;-70
2023/03/04 00:13:24;;;;;;;11.68;2.22;;;6.20;99.90;;;;;;5128852;27;20126;-69
2023/03/04 00:15:50;;;;;;;12.02;1.85;;;6.20;99.90;;;;;;5110003;28;20036;-70
2023/03/04 00:18:16;;;;;;;13.10;2.03;;;6.10;99.90;;;;;;5094748;28;20051;-69
2023/03/04 00:20:42;;;;;;;12.02;2.42;;;6.10;99.90;;;;;;5093394;28;20404;-69
2023/03/04 00:23:07;;;;;;;9.40;1.77;;;6.10;99.90;;;;;;5110867;28;20039;-69
2023/03/04 00:25:33;;;;;;;17.10;2.10;;;6.10;99.90;;;;;;5117701;27;20106;-70
2023/03/04 00:27:59;;;;;;;13.77;1.90;;;6.10;99.90;;;;;;5091087;28;20041;-70
2023/03/04 00:30:24;;;;;;;14.65;2.10;;;6.10;99.90;;;;;;5078933;28;20029;-70
2023/03/04 00:32:50;;;;;;;13.23;2.00;;;6.10;99.90;;;;;;5094630;28;20097;-70
2023/03/04 00:35:15;;;;;;;12.48;2.00;;;6.10;99.90;;;;;;5068980;28;20047;-69
2023/03/04 00:37:41;;;;;;;10.68;2.65;;;6.10;99.90;;;;;;5107886;28;20567;-70
2023/03/04 00:40:08;;;;;;;11.75;2.03;;;6.10;99.90;;;;;;5110427;28;20032;-69
2023/03/04 00:42:33;;;;;;;8.90;1.70;;;6.10;99.90;;;;;;5094207;28;20079;-70
2023/03/04 00:44:59;;;;;;;13.60;2.10;;;6.10;99.90;;;;;;5092513;28;20063;-70
2023/03/04 00:47:25;;;;;;;16.65;2.80;;;6.10;99.90;;;;;;5109486;28;20035;-69
2023/03/04 00:49:51;;;;;;;15.50;2.10;;;6.10;99.90;;;;;;5111272;28;20122;-69
2023/03/04 00:52:16;;;;;;;8.55;1.27;;;6.00;99.90;;;;;;5093953;28;20044;-70
2023/03/04 00:54:42;;;;;;;14.45;2.35;;;6.10;99.90;;;;;;5073169;28;20044;-70
2023/03/04 00:57:07;;;;;;;12.82;2.10;;;6.10;99.90;;;;;;5115192;27;20500;-69
2023/03/04 00:59:33;;;;;;;10.90;2.17;;;6.10;99.90;;;;;;5109918;28;20032;-69
2023/03/04 01:01:58;;;;;;;11.95;1.70;;;6.10;99.90;;;;;;5127951;27;20127;-69
2023/03/04 01:04:24;;;;;;;14.07;1.60;;;6.10;99.90;;;;;;5127119;27;20432;-69
2023/03/04 01:06:50;;;;;;;11.82;1.80;;;6.10;99.90;;;;;;5127883;27;20039;-70
2023/03/04 01:09:15;;;;;;;15.18;2.35;;;6.10;99.90;;;;;;5127985;27;20040;-69
2023/03/04 01:11:41;;;;;;;8.55;1.80;;;6.10;99.90;;;;;;5110666;27;20040;-70
2023/03/04 01:14:06;;;;;;;8.50;1.75;;;6.10;99.90;;;;;;5073557;28;20037;-69
2023/03/04 01:16:32;;;;;;;13.27;1.80;;;6.10;99.90;;;;;;5093608;28;20040;-69
2023/03/04 01:18:58;;;;;;;9.75;2.20;;;6.00;99.90;;;;;;5127761;27;20476;-69
2023/03/04 01:21:23;;;;;;;13.20;2.47;;;6.10;99.90;;;;;;5092763;28;20039;-70
2023/03/04 01:23:49;;;;;;;10.88;1.73;;;6.10;99.90;;;;;;5108197;27;20040;-70
2023/03/04 01:26:14;;;;;;;13.63;2.00;;;6.10;99.90;;;;;;5090242;28;20040;-69
2023/03/04 01:28:40;;;;;;;15.48;2.00;;;6.10;99.90;;;;;;5113949;28;20093;-69
2023/03/04 01:31:06;;;;;;;10.43;1.63;;;6.10;99.90;;;;;;5099003;28;20488;-69
2023/03/04 01:33:31;;;;;;;16.13;2.38;;;6.10;99.90;;;;;;5108861;28;20047;-69
2023/03/04 01:35:57;;;;;;;11.75;2.25;;;6.10;99.90;;;;;;5075245;28;20472;-69
2023/03/04 01:38:23;;;;;;;10.60;2.05;;;6.10;99.90;;;;;;5123500;27;20035;-70
2023/03/04 01:40:50;;;;;;;11.57;1.60;;;6.00;99.90;;;;;;5110045;28;20048;-70
2023/03/04 01:43:27;;;;;;;10.88;1.73;;;6.10;99.90;;;;;;5076432;28;20059;-69
2023/03/04 01:45:54;;;;;;;13.48;2.50;;;6.00;99.90;;;;;;5092763;28;20122;-70
2023/03/04 01:48:30;;;;;;;12.48;2.13;;;6.00;99.90;;;;;;5092892;28;20048;-69
2023/03/04 01:50:58;;;;;;;11.10;1.65;;;6.00;99.90;;;;;;5076137;28;20040;-70
2023/03/04 01:53:26;;;;;;;16.88;3.60;;;6.10;99.90;;;;;;5073144;28;20043;-69
2023/03/04 01:55:54;;;;;;;10.57;1.75;;;6.00;99.90;;;;;;5078264;28;20040;-69
2023/03/04 01:58:20;;;;;;;10.00;1.58;;;6.10;99.90;;;;;;5109884;28;20066;-69
2023/03/04 02:00:45;;;;;;;11.60;1.95;;;6.10;99.90;;;;;;5086994;28;20040;-70
2023/03/04 02:03:14;;;;;;;6.43;1.45;;;6.00;99.90;;;;;;5075404;28;20092;-69
2023/03/04 02:05:43;;;;;;;11.75;1.75;;;6.00;99.90;;;;;;5095462;28;20080;-69
2023/03/04 02:08:09;;;;;;;10.05;2.17;;;6.00;99.90;;;;;;5101572;28;20047;-69
2023/03/04 02:10:36;;;;;;;12.35;1.60;;;6.00;99.90;;;;;;5075540;28;20040;-69
2023/03/04 02:13:02;;;;;;;8.88;1.60;;;6.00;99.90;;;;;;5092789;28;20036;-69
2023/03/04 02:15:29;;;;;;;9.13;1.70;;;5.90;99.90;;;;;;5105966;28;20039;-69
2023/03/04 02:17:55;;;;;;;11.95;1.73;;;5.90;99.90;;;;;;5060452;28;20038;-69
2023/03/04 02:20:29;;;;;;;13.65;2.10;;;6.00;99.90;;;;;;5075667;28;20491;-69
2023/03/04 02:23:10;;;;;;;10.20;2.30;;;5.90;99.90;;;;;;5079921;28;20420;-69
2023/03/04 02:26:01;;;;;;;16.33;2.47;;;5.90;99.90;;;;;;5074417;28;20065;-70
2023/03/04 02:28:27;;;;;;;10.45;1.60;;;5.90;99.90;;;;;;5077265;28;20507;-70
2023/03/04 02:30:52;;;;;;;15.60;2.15;;;5.90;99.90;;;;;;5125365;27;20036;-69
2023/03/04 02:33:18;;;;;;;12.10;2.30;;;5.90;99.90;;;;;;5092435;28;20044;-69
2023/03/04 02:35:45;;;;;;;10.27;1.80;;;5.90;99.90;;;;;;5108823;28;20043;-70
2023/03/04 02:38:11;;;;;;;11.52;1.52;;;5.90;99.90;;;;;;5068698;28;20082;-69
2023/03/04 02:40:38;;;;;;;9.45;1.90;;;5.90;99.90;;;;;;5088648;28;20048;-69
2023/03/04 02:43:03;;;;;;;14.68;1.88;;;5.90;99.90;;;;;;5072495;28;20055;-69
2023/03/04 02:45:35;;;;;;;10.80;1.83;;;5.90;99.90;;;;;;5099516;28;20040;-70
2023/03/04 02:48:01;;;;;;;11.60;2.30;;;5.90;99.90;;;;;;5102793;28;20083;-69
2023/03/04 02:50:32;;;;;;;13.63;1.75;;;5.90;99.90;;;;;;5075310;28;20044;-69
2023/03/04 02:52:57;;;;;;;13.32;1.90;;;5.90;99.90;;;;;;5091169;28;20036;-69
2023/03/04 02:55:23;;;;;;;12.50;1.92;;;5.80;99.90;;;;;;5091014;28;20420;-70
2023/03/04 02:57:48;;;;;;;10.45;1.83;;;5.80;99.90;;;;;;5087778;28;20189;-70
2023/03/04 03:00:15;;;;;;;13.20;2.35;;;5.80;99.90;;;;;;5095352;28;20043;-70
2023/03/04 03:02:40;;;;;;;14.30;1.75;;;5.80;99.90;;;;;;5095608;28;20491;-69
2023/03/04 03:05:06;;;;;;;9.88;1.80;;;5.80;99.90;;;;;;5109330;28;20063;-70
2023/03/04 03:07:33;;;;;;;11.30;1.77;;;5.80;99.90;;;;;;5084502;28;20123;-69
2023/03/04 03:10:00;;;;;;;11.10;1.27;;;5.80;99.90;;;;;;5091081;28;20051;-70
2023/03/04 03:12:26;;;;;;;10.38;1.60;;;5.80;99.90;;;;;;5074829;28;20043;-69
2023/03/04 03:14:51;;;;;;;12.13;2.35;;;5.80;99.90;;;;;;5107637;28;20036;-69
2023/03/04 03:17:17;;;;;;;10.77;1.60;;;5.90;99.90;;;;;;5109958;28;20036;-70
2023/03/04 03:19:42;;;;;;;7.95;1.48;;;5.80;99.90;;;;;;5106590;27;20044;-69
2023/03/04 03:22:08;;;;;;;10.10;1.70;;;5.80;99.90;;;;;;5094968;28;20063;-70
2023/03/04 03:24:34;;;;;;;9.55;2.10;;;5.80;99.90;;;;;;5078799;28;20089;-69
2023/03/04 03:26:59;;;;;;;9.65;1.33;;;5.80;99.90;;;;;;5085061;28;20098;-70
2023/03/04 03:29:25;;;;;;;11.48;1.52;;;5.80;99.90;;;;;;5084154;28;20047;-69
2023/03/04 03:31:50;;;;;;;15.20;2.35;;;5.80;99.90;;;;;;5117539;27;20068;-70
2023/03/04 03:34:16;;;;;;;7.93;1.20;;;5.80;99.90;;;;;;5078046;28;20059;-70
2023/03/04 03:36:41;;;;;;;8.70;1.42;;;5.80;99.90;;;;;;5093996;28;20032;-69
2023/03/04 03:39:07;;;;;;;12.90;1.75;;;5.80;99.90;;;;;;5076052;28;20509;-70
2023/03/04 03:41:33;;;;;;;10.00;1.30;;;5.80;99.90;;;;;;5073114;28;20043;-69
2023/03/04 03:43:58;;;;;;;9.63;1.77;;;5.80;99.90;;;;;;5110784;28;20044;-69
2023/03/04 03:46:24;;;;;;;9.27;1.70;;;5.80;99.90;;;;;;5075454;28;20032;-69
2023/03/04 03:48:49;;;;;;;9.95;1.95;;;5.80;99.90;;;;;;5085161;28;20400;-69
2023/03/04 03:51:15;;;;;;;9.60;1.98;;;5.80;99.90;;;;;;5116101;27;20048;-69
2023/03/04 03:53:40;;;;;;;10.77;1.90;;;5.80;99.90;;;;;;5098245;28;20032;-70
2023/03/04 03:56:06;;;;;;;10.52;2.08;;;5.80;99.90;;;;;;5069886;28;20488;-69
2023/03/04 03:58:32;;;;;;;8.90;1.50;;;5.80;99.90;;;;;;5088633;28;20044;-69
2023/03/04 04:00:57;;;;;;;13.77;2.22;;;5.80;99.90;;;;;;5108310;28;20185;-69
2023/03/04 04:03:23;;;;;;;8.60;1.38;;;5.80;99.90;;;;;;5123205;27;20040;-69
2023/03/04 04:05:48;;;;;;;8.80;1.65;;;5.80;99.90;;;;;;5093874;28;20035;-70
2023/03/04 04:08:16;;;;;;;7.45;1.25;;;5.80;99.90;;;;;;5126534;27;20462;-70
2023/03/04 04:10:42;;;;;;;9.30;1.60;;;5.80;99.90;;;;;;5091374;28;20078;-70
2023/03/04 04:13:08;;;;;;;9.55;1.50;;;5.80;99.90;;;;;;5111060;28;20036;-69
2023/03/04 04:15:35;;;;;;;7.65;1.25;;;5.80;99.90;;;;;;5093667;28;20028;-69
2023/03/04 04:18:01;;;;;;;9.23;1.40;;;5.80;99.90;;;;;;5104163;28;20063;-70
2023/03/04 04:20:26;;;;;;;9.32;1.50;;;5.80;99.90;;;;;;5073068;28;20071;-69
2023/03/04 04:22:52;;;;;;;7.97;1.60;;;5.80;99.90;;;;;;5109177;28;20107;-70
2023/03/04 04:25:18;;;;;;;12.73;2.03;;;5.80;99.90;;;;;;5076302;28;20035;-70
2023/03/04 04:27:43;;;;;;;9.32;1.63;;;5.80;99.90;;;;;;5094031;28;20480;-70
2023/03/04 04:30:09;;;;;;;10.45;1.48;;;5.80;99.90;;;;;;5086513;28;20090;-69
2023/03/04 04:32:35;;;;;;;11.75;1.80;;;5.80;99.90;;;;;;5086162;28;20059;-69
2023/03/04 04:35:01;;;;;;;8.65;1.40;;;5.80;99.90;;;;;;5082530;28;20063;-69
2023/03/04 04:37:26;;;;;;;7.35;2.03;;;5.80;99.90;;;;;;5093669;28;20036;-69
2023/03/04 04:39:54;;;;;;;8.05;1.65;;;5.80;99.90;;;;;;5077239;28;20093;-70
2023/03/04 04:42:20;;;;;;;10.90;1.52;;;5.80;99.90;;;;;;5094105;28;20488;-69
2023/03/04 04:44:45;;;;;;;8.98;1.50;;;5.80;99.90;;;;;;5090640;28;20054;-69
2023/03/04 04:47:11;;;;;;;9.93;1.92;;;5.80;99.90;;;;;;5126117;27;20536;-70
2023/03/04 04:49:37;;;;;;;9.23;1.35;;;5.80;99.90;;;;;;5128472;27;20471;-69
2023/03/04 04:52:02;;;;;;;9.55;1.60;;;5.80;99.90;;;;;;5081984;28;20185;-70
2023/03/04 04:54:28;;;;;;;10.95;1.52;;;5.80;99.90;;;;;;5076428;28;20052;-70
2023/03/04 04:56:53;;;;;;;9.68;1.50;;;5.80;99.90;;;;;;5120616;27;20134;-70
2023/03/04 04:59:19;;;;;;;7.60;1.45;;;5.80;99.90;;;;;;5075791;28;20548;-70
2023/03/04 05:01:45;;;;;;;12.25;1.45;;;5.80;99.90;;;;;;5092647;28;20032;-69
2023/03/04 05:04:11;;;;;;;12.05;1.48;;;5.70;99.90;;;;;;5109102;27;20037;-70
2023/03/04 05:06:36;;;;;;;5.65;1.40;;;5.70;99.90;;;;;;5075581;28;20118;-70
2023/03/04 05:09:03;;;;;;;10.65;1.48;;;5.70;99.90;;;;;;5126076;27;20036;-70
2023/03/04 05:11:28;;;;;;;8.35;1.58;;;5.70;99.90;;;;;;5073944;28;20047;-70
2023/03/04 05:13:54;;;;;;;9.65;1.40;;;5.70;99.90;;;;;;5107924;28;20040;-69
2023/03/04 05:16:20;;;;;;;9.85;1.52;;;5.70;99.90;;;;;;5105755;28;20032;-69
2023/03/04 05:18:45;;;;;;;13.85;1.80;;;5.70;99.90;;;;;;5105173;28;20028;-69
2023/03/04 05:21:11;;;;;;;12.73;1.52;;;5.70;99.90;;;;;;5092089;28;20035;-69
2023/03/04 05:23:39;;;;;;;10.82;1.80;;;5.70;99.90;;;;;;5092735;28;20490;-69
2023/03/04 05:26:07;;;;;;;6.07;1.67;;;5.70;99.90;;;;;;5072702;28;20500;-69
2023/03/04 05:28:33;;;;;;;9.93;1.85;;;5.70;99.90;;;;;;5091826;28;20125;-69
2023/03/04 05:30:59;;;;;;;5.45;1.30;;;5.70;99.90;;;;;;5095252;28;20050;-69
2023/03/04 05:33:25;;;;;;;12.50;1.55;;;5.70;99.90;;;;;;5091411;28;20036;-69
2023/03/04 05:35:50;;;;;;;8.40;1.30;;;5.70;99.90;;;;;;5086580;28;20423;-70
2023/03/04 05:38:18;;;;;;;8.40;1.25;;;5.70;99.90;;;;;;5116621;27;20033;-69
2023/03/04 05:40:44;;;;;;;7.20;1.30;;;5.70;99.90;;;;;;5085297;28;20492;-69
2023/03/04 05:43:10;;;;;;;6.10;1.35;;;5.60;99.90;;;;;;5074138;28;20122;-69
2023/03/04 05:45:37;;;;;;;7.25;1.40;;;5.60;99.90;;;;;;5074893;28;20587;-70
2023/03/04 05:48:03;;;;;;;9.57;1.60;;;5.60;99.90;;;;;;5106049;27;20403;-69
2023/03/04 05:50:29;;;;;;;15.18;2.13;;;5.60;99.90;;;;;;5063328;28;20036;-70
2023/03/04 05:52:55;;;;;;;6.82;1.55;;;5.60;99.90;;;;;;5073881;28;20043;-70
2023/03/04 05:55:20;;;;;;;10.68;1.90;;;5.60;99.90;;;;;;5127257;27;20035;-70
2023/03/04 05:57:46;;;;;;;9.50;1.95;;;5.60;99.90;;;;;;5107988;28;20048;-70
2023/03/04 06:00:13;;;;;;;10.27;1.60;;;5.60;99.90;;;;;;5091990;28;20039;-70
2023/03/04 06:02:40;;;;;;;6.15;1.20;;;5.60;99.90;;;;;;5072305;28;20495;-70
2023/03/04 06:05:06;;;;;;;8.50;1.50;;;5.60;99.90;;;;;;5092776;28;20040;-69
2023/03/04 06:07:32;;;;;;;8.20;1.50;;;5.60;99.90;;;;;;5107311;28;20046;-70
2023/03/04 06:09:58;;;;;;;8.82;1.40;;;5.60;99.90;;;;;;5126223;27;20040;-70
2023/03/04 06:12:24;;;;;;;9.32;1.58;;;5.60;99.90;;;;;;5124787;27;20484;-69
2023/03/04 06:14:49;;;;;;;8.57;2.08;;;5.70;99.90;;;;;;5092725;28;20073;-70
2023/03/04 06:17:15;;;;;;;8.75;1.70;;;5.70;99.90;;;;;;5066558;28;20446;-70
2023/03/04 06:19:41;;;;;;;5.43;1.15;;;5.70;99.90;;;;;;5107009;28;20128;-70
2023/03/04 06:22:07;;;;;;;10.65;1.70;;;5.70;99.90;;;;;;5090042;28;20519;-70
2023/03/04 06:24:34;;;;;;;4.28;1.20;;;5.70;99.90;;;;;;5090287;28;20036;-70
2023/03/04 06:27:00;;;;;;;7.93;1.20;;;5.70;99.90;;;;;;5090806;28;20042;-70
2023/03/04 06:29:26;;;;;;;6.72;1.55;;;5.60;99.90;;;;;;5092323;28;20046;-70
2023/03/04 06:31:51;;;;;;;5.90;1.08;;;5.70;99.90;;;;;;5090587;28;20403;-70
2023/03/04 06:34:17;;;;;;;9.25;1.33;;;5.70;99.90;;;;;;5099619;28;20075;-70
2023/03/04 06:36:43;;;;;;;8.63;1.25;;;5.70;99.90;;;;;;5072824;28;20060;-70
2023/03/04 06:39:09;;;;;;;6.15;1.13;;;5.70;99.90;;;;;;5104699;28;20537;-70
2023/03/04 06:41:35;;;;;;;7.15;1.30;;;5.70;99.90;;;;;;5125029;27;20117;-70
2023/03/04 06:44:00;;;;;;;9.55;1.25;;;5.70;99.90;;;;;;5090538;28;20061;-70
2023/03/04 06:46:26;;;;;;;9.48;1.52;;;5.70;99.90;;;;;;5126089;27;20040;-70
2023/03/04 06:48:52;;;;;;;6.97;1.38;;;5.70;99.90;;;;;;5125698;27;20044;-70
2023/03/04 06:51:18;;;;;;;6.88;1.10;;;5.70;99.90;;;;;;5125789;27;20056;-70
2023/03/04 06:53:44;;;;;;;9.27;1.38;;;5.80;99.90;;;;;;5091919;28;20040;-70
2023/03/04 06:56:11;;;;;;;7.97;1.30;;;5.80;99.90;;;;;;5081732;28;20059;-70
2023/03/04 06:58:37;;;;;;;8.10;1.23;;;5.90;99.90;;;;;;5091864;28;20488;-70
2023/03/04 07:01:19;;;;;;;8.63;1.50;;;5.80;99.90;;;;;;5074364;28;20172;-70
2023/03/04 07:03:46;;;;;;;11.10;1.35;;;5.80;99.90;;;;;;5073827;28;20088;-70
2023/03/04 07:06:15;;;;;;;7.43;1.10;;;5.80;99.90;;;;;;5091960;28;20484;-70
2023/03/04 07:08:41;;;;;;;10.32;1.55;;;5.80;99.90;;;;;;5091199;28;20036;-70
2023/03/04 07:11:07;;;;;;;6.32;1.10;;;5.80;99.90;;;;;;5074156;28;20040;-70
2023/03/04 07:13:36;;;;;;;11.07;1.38;;;5.80;99.90;;;;;;5091686;28;20043;-70
2023/03/04 07:16:06;;;;;;;6.65;1.20;;;5.90;99.90;;;;;;5108385;28;20071;-70
2023/03/04 07:18:32;;;;;;;10.43;1.10;;;5.90;99.90;;;;;;5058758;28;20043;-70
2023/03/04 07:20:57;;;;;;;10.57;1.30;;;5.80;99.90;;;;;;5071582;28;20520;-70
2023/03/04 07:23:23;;;;;;;7.40;1.58;;;5.90;99.90;;;;;;5105577;28;20051;-70
2023/03/04 07:25:49;;;;;;;7.07;1.38;;;5.90;99.90;;;;;;5071743;28;20032;-70
2023/03/04 07:28:15;;;;;;;9.15;1.52;;;5.90;99.90;;;;;;5073798;28;20404;-70
2023/03/04 07:30:40;;;;;;;9.95;1.20;;;5.90;99.90;;;;;;5074275;28;20043;-70
2023/03/04 07:33:06;;;;;;;9.57;1.40;;;5.90;99.90;;;;;;5125667;27;20036;-70
2023/03/04 07:35:32;;;;;;;7.68;1.20;;;6.00;99.90;;;;;;5108815;28;20040;-70
2023/03/04 07:37:57;;;;;;;8.32;1.20;;;6.00;99.90;;;;;;5108793;28;20050;-70
2023/03/04 07:40:23;;;;;;;7.18;1.30;;;6.00;99.90;;;;;;5123262;27;20028;-70
2023/03/04 07:42:53;;;;;;;7.55;1.27;;;6.00;99.90;;;;;;5107952;28;20051;-73
2023/03/04 07:45:20;;;;;;;15.30;1.95;;;6.00;99.90;;;;;;5090776;28;20028;-74
2023/03/04 07:47:46;;;;;;;13.77;1.58;;;6.00;99.90;;;;;;5108776;28;20104;-75
2023/03/04 07:50:12;;;;;;;13.73;1.90;;;6.00;99.90;;;;;;5091464;28;20115;-79
2023/03/04 07:52:39;;;;;;;9.20;1.63;;;6.00;99.90;;;;;;5099500;28;20047;-70
2023/03/04 07:55:06;;;;;;;7.78;1.33;;;6.00;99.90;;;;;;5072447;28;20036;-70
2023/03/04 07:57:31;;;;;;;5.78;0.98;;;6.10;99.90;;;;;;5073564;28;20434;-70
2023/03/04 07:59:57;;;;;;;4.95;1.00;;;6.10;99.90;;;;;;5089637;28;20047;-71
2023/03/04 08:02:22;;;;;;;6.65;1.08;;;6.10;99.90;;;;;;5089093;28;20089;-71
2023/03/04 08:04:48;;;;;;;9.00;1.20;;;6.10;99.90;;;;;;5111119;28;20040;-69
2023/03/04 08:07:13;;;;;;;7.50;1.55;;;6.10;99.90;;;;;;5111545;28;20040;-69
2023/03/04 08:09:39;;;;;;;6.28;1.20;;;6.10;99.90;;;;;;5111910;28;20040;-69
2023/03/04 08:12:05;;;;;;;11.40;1.63;;;6.10;99.90;;;;;;5115908;27;20083;-69
2023/03/04 08:14:31;;;;;;;12.10;1.33;;;6.20;99.90;;;;;;5086781;28;20048;-68
2023/03/04 08:16:56;;;;;;;10.10;1.63;;;6.20;99.90;;;;;;5108537;28;20037;-68
2023/03/04 08:19:22;;;;;;;11.27;1.70;;;6.20;99.90;;;;;;5074740;28;20127;-68
2023/03/04 08:21:47;;;;;;;8.93;1.17;;;6.20;99.90;;;;;;5091117;28;20048;-68
2023/03/04 08:24:13;;;;;;;9.23;1.55;;;6.20;99.90;;;;;;5106149;28;20489;-69
2023/03/04 08:26:45;;;;;;;9.23;1.27;;;6.20;99.90;;;;;;5108220;28;20530;-69
2023/03/04 08:29:19;;;;;;;7.53;2.30;;;6.20;99.90;;;;;;5121020;27;20036;-69
2023/03/04 08:31:45;;;;;;;10.60;1.60;;;6.20;99.90;;;;;;5093519;28;20051;-68
2023/03/04 08:34:13;;;;;;;11.80;2.00;;;6.20;99.90;;;;;;5075800;28;20032;-69
2023/03/04 08:36:40;;;;;;;11.70;1.77;;;6.20;99.90;;;;;;5111494;28;20036;-69
2023/03/04 08:39:05;;;;;;;12.23;2.00;;;6.20;99.90;;;;;;5077525;28;20082;-70
2023/03/04 08:41:31;;;;;;;9.23;1.70;;;6.20;99.90;;;;;;5127612;27;20403;-70
2023/03/04 08:43:59;;;;;;;15.70;2.50;;;6.20;99.90;;;;;;5109568;28;20032;-70
2023/03/04 08:46:24;;;;;;;14.18;2.65;;;6.20;99.90;;;;;;5074183;28;20040;-70
2023/03/04 08:48:50;;;;;;;16.08;2.40;;;6.30;99.90;;;;;;5107799;28;20515;-70
2023/03/04 08:51:16;;;;;;;22.17;3.70;;;6.30;99.90;;;;;;5119424;27;20396;-70
2023/03/04 08:53:42;;;;;;;16.98;2.45;;;6.30;99.90;;;;;;5110400;28;20052;-70
2023/03/04 08:56:09;;;;;;;18.88;2.63;;;6.30;99.90;;;;;;5107058;27;20058;-70
2023/03/04 08:58:35;;;;;;;14.55;2.30;;;6.30;99.90;;;;;;5091374;28;20036;-70
2023/03/04 09:01:02;;;;;;;14.93;2.80;;;6.30;99.90;;;;;;5093458;28;20051;-70
2023/03/04 09:03:28;;;;;;;17.60;2.83;;;6.30;99.90;;;;;;5093840;28;20362;-70
2023/03/04 09:05:54;;;;;;;18.55;3.70;;;6.30;99.90;;;;;;5076189;28;20039;-70
2023/03/04 09:08:19;;;;;;;19.15;2.95;;;6.30;99.90;;;;;;5110215;28;20067;-71
2023/03/04 09:10:46;;;;;;;13.35;3.28;;;6.30;99.90;;;;;;5110922;28;20040;-70
2023/03/04 09:13:14;;;;;;;17.67;3.33;;;6.30;99.90;;;;;;5092404;28;20044;-70
2023/03/04 09:15:46;;;;;;;19.00;2.58;;;6.30;99.90;;;;;;5067424;28;20032;-71
2023/03/04 09:18:12;;;;;;;18.47;2.63;;;6.30;99.90;;;;;;5090245;28;20077;-70
2023/03/04 09:20:38;;;;;;;14.63;2.13;;;6.30;99.90;;;;;;5073380;28;20044;-70
2023/03/04 09:23:03;;;;;;;17.38;2.80;;;6.30;99.90;;;;;;5092664;28;20056;-70
2023/03/04 09:25:29;;;;;;;19.63;3.25;;;6.30;99.90;;;;;;5094428;27;20038;-70
2023/03/04 09:27:54;;;;;;;17.63;2.63;;;6.40;99.90;;;;;;5091697;28;20404;-70
2023/03/04 09:30:20;;;;;;;20.42;3.17;;;6.40;99.90;;;;;;5075882;28;20112;-71
2023/03/04 09:32:46;;;;;;;18.17;2.63;;;6.40;99.90;;;;;;5076532;28;20510;-71
2023/03/04 09:35:12;;;;;;;15.60;2.40;;;6.50;99.90;;;;;;5075796;28;20040;-71
2023/03/04 09:37:37;;;;;;;19.60;3.22;;;6.50;99.90;;;;;;5127282;27;20126;-71
2023/03/04 09:40:04;;;;;;;12.00;2.33;;;6.50;99.90;;;;;;5127274;27;20071;-71
2023/03/04 09:42:36;;;;;;;12.77;2.13;;;6.50;99.90;;;;;;5126389;27;20032;-71
2023/03/04 09:45:04;;;;;;;12.13;2.20;;;6.60;99.90;;;;;;5109378;28;20032;-71
2023/03/04 09:47:35;;;;;;;12.77;2.15;;;6.60;99.90;;;;;;5094959;28;20545;-71
2023/03/04 09:50:06;;;;;;;11.15;1.80;;;6.50;99.90;;;;;;5092253;28;20127;-71
2023/03/04 09:53:03;;;;;;;14.25;2.45;;;6.60;99.90;;;;;;5075945;28;20044;-71
2023/03/04 09:55:41;;;;;;;13.55;2.20;;;6.60;99.90;;;;;;5092672;28;20146;-71
2023/03/04 09:58:38;;;;;;;13.07;2.00;;;6.60;99.90;;;;;;5091684;28;20080;-71
2023/03/04 10:01:29;;;;;;;11.43;1.77;;;6.60;99.90;;;;;;5075899;28;20047;-70
2023/03/04 10:04:04;;;;;;;12.10;1.67;;;6.60;99.90;;;;;;5093072;28;20105;-70
2023/03/04 10:06:30;;;;;;;9.23;1.75;;;6.50;99.90;;;;;;5075734;28;20032;-71
2023/03/04 10:09:01;;;;;;;9.90;2.00;;;6.50;99.90;;;;;;5126775;27;20047;-71
2023/03/04 10:11:45;;;;;;;9.23;1.70;;;6.50;99.90;;;;;;5126787;27;20054;-70
2023/03/04 10:14:13;;;;;;;13.63;2.03;;;6.50;99.90;;;;;;5100097;28;20032;-71
2023/03/04 10:16:44;;;;;;;11.35;1.45;;;6.50;99.90;;;;;;5103670;28;20039;-70
2023/03/04 10:19:13;;;;;;;10.40;1.70;;;6.60;99.90;;;;;;5092569;28;20054;-71
2023/03/04 10:21:43;;;;;;;8.80;1.30;;;6.70;99.90;;;;;;5126516;27;20082;-71
2023/03/04 10:24:16;;;;;;;10.93;1.75;;;6.80;99.90;;;;;;5109452;28;20036;-71
2023/03/04 10:26:44;;;;;;;8.32;1.17;;;6.80;99.90;;;;;;5094950;28;20090;-71
2023/03/04 10:29:20;;;;;;;8.45;1.40;;;6.90;99.90;;;;;;5090127;28;20107;-71
2023/03/04 10:31:46;;;;;;;6.45;1.20;;;6.90;99.90;;;;;;5092217;28;20039;-71
2023/03/04 10:34:13;;;;;;;8.90;1.67;;;6.90;99.90;;;;;;5075509;28;20040;-71
2023/03/04 10:37:04;;;;;;;13.82;2.15;;;6.80;99.90;;;;;;5079133;28;20064;-71
2023/03/04 10:39:33;;;;;;;12.45;2.20;;;6.70;99.90;;;;;;5088815;28;20036;-71
2023/03/04 10:42:02;;;;;;;11.93;2.00;;;6.60;99.90;;;;;;5072576;28;20382;-71
2023/03/04 10:44:29;;;;;;;15.38;2.15;;;6.60;99.90;;;;;;5071912;28;20507;-71
2023/03/04 10:46:56;;;;;;;13.90;2.15;;;6.60;99.90;;;;;;5091765;28;20085;-72
2023/03/04 10:49:24;;;;;;;9.93;2.00;;;6.70;99.90;;;;;;5109197;28;20119;-76
2023/03/04 10:52:48;;;;;;;12.05;2.15;;;6.80;99.90;;;;;;5109120;28;20047;-71
2023/03/04 10:55:43;;;;;;;10.63;2.40;;;6.80;99.90;;;;;;5087174;28;20131;-71
2023/03/04 10:58:17;;;;;;;15.60;2.58;;;6.90;99.90;;;;;;5066771;28;20547;-71
2023/03/04 11:00:42;;;;;;;16.50;2.58;;;6.80;99.90;;;;;;5102221;28;20036;-71
2023/03/04 11:03:26;;;;;;;15.75;3.28;;;6.80;99.90;;;;;;5091515;28;20084;-71
2023/03/04 11:06:04;;;;;;;14.48;2.63;;;6.80;99.90;;;;;;5068082;28;20043;-71
2023/03/04 11:08:29;;;;;;;13.45;2.80;;;6.80;99.90;;;;;;5090124;28;20047;-71
2023/03/04 11:10:55;;;;;;;14.48;3.55;;;6.80;99.90;;;;;;5088724;28;20040;-71
2023/03/04 11:13:25;;;;;;;14.10;3.90;;;6.80;99.90;;;;;;5067958;28;20042;-71
2023/03/04 11:15:51;;;;;;;16.77;2.40;;;6.90;99.90;;;;;;5085765;28;20415;-71
2023/03/04 11:18:21;;;;;;;12.40;2.78;;;6.90;99.90;;;;;;5098069;28;20044;-71
2023/03/04 11:20:49;;;;;;;15.30;2.45;;;6.90;99.90;;;;;;5091665;28;20504;-71
2023/03/04 11:23:22;;;;;;;12.48;2.03;;;6.90;99.90;;;;;;5071117;28;20139;-71
2023/03/04 11:25:55;;;;;;;12.95;2.00;;;7.00;99.90;;;;;;5090134;28;20044;-71
2023/03/04 11:28:40;;;;;;;13.18;2.35;;;7.10;99.90;;;;;;5076510;28;20036;-72
2023/03/04 11:31:13;;;;;;;12.15;2.53;;;7.10;99.90;;;;;;5089296;28;20051;-71
2023/03/04 11:34:03;;;;;;;11.63;2.55;;;7.10;99.90;;;;;;5072523;28;20048;-71
2023/03/04 11:36:32;;;;;;;14.40;2.53;;;7.10;99.90;;;;;;5066369;28;20054;-71
2023/03/04 11:38:58;;;;;;;14.45;2.00;;;7.10;99.90;;;;;;5107699;28;20035;-71
2023/03/04 11:41:36;;;;;;;14.43;2.97;;;7.10;99.90;;;;;;5069728;28;20385;-71
2023/03/04 11:44:05;;;;;;;16.33;2.60;;;7.10;99.90;;;;;;5094474;28;20048;-71
2023/03/04 11:46:51;;;;;;;11.77;1.92;;;7.10;99.90;;;;;;5094774;28;20427;-71
2023/03/04 11:49:48;;;;;;;17.75;2.80;;;7.00;99.90;;;;;;5077040;28;20079;-71
2023/03/04 11:52:38;;;;;;;13.88;1.95;;;7.00;99.90;;;;;;5072366;28;20054;-71
2023/03/04 11:55:42;;;;;;;15.65;2.33;;;7.00;99.90;;;;;;5124056;27;20040;-71
2023/03/04 11:58:33;;;;;;;15.07;2.55;;;7.10;99.90;;;;;;5091216;28;20130;-71
2023/03/04 12:01:26;;;;;;;15.27;2.70;;;7.20;99.90;;;;;;5070733;28;20511;-71
2023/03/04 12:04:11;;;;;;;11.57;2.03;;;7.20;99.90;;;;;;5103930;28;20053;-71
2023/03/04 12:06:55;;;;;;;9.88;2.08;;;7.20;99.90;;;;;;5113529;27;20063;-74
2023/03/04 12:09:47;;;;;;;17.02;2.88;;;7.20;99.90;;;;;;5084608;28;20047;-70
2023/03/04 12:12:33;;;;;;;9.05;1.67;;;7.10;99.90;;;;;;5077271;28;20040;-70
2023/03/04 12:15:17;;;;;;;7.45;1.80;;;7.10;99.90;;;;;;5093476;28;20048;-71
2023/03/04 12:17:49;;;;;;;11.13;1.90;;;7.20;99.90;;;;;;5077670;28;20075;-70
2023/03/04 12:20:26;;;;;;;12.48;2.15;;;7.20;99.90;;;;;;5128297;27;20500;-70
2023/03/04 12:23:01;;;;;;;14.43;2.20;;;7.30;99.90;;;;;;5074750;28;20091;-70
2023/03/04 12:25:36;;;;;;;9.15;1.42;;;7.30;99.90;;;;;;5080044;28;20365;-70
2023/03/04 12:28:19;;;;;;;11.63;2.38;;;7.30;99.90;;;;;;5075610;28;20036;-71
2023/03/04 12:31:12;;;;;;;10.95;2.97;;;7.20;99.90;;;;;;5126829;27;20575;-70
2023/03/04 12:34:13;;;;;;;10.38;1.92;;;7.20;99.90;;;;;;5076298;28;20054;-72
2023/03/04 12:37:01;;;;;;;13.20;2.28;;;7.20;99.90;;;;;;5088973;28;20040;-71
2023/03/04 12:39:46;;;;;;;14.07;2.20;;;7.10;99.90;;;;;;5102370;28;20041;-71
2023/03/04 12:42:15;;;;;;;12.27;2.20;;;7.20;99.90;;;;;;5081641;28;20109;-71
2023/03/04 12:44:58;;;;;;;14.35;2.65;;;7.20;99.90;;;;;;5062457;28;20124;-71
2023/03/04 12:47:30;;;;;;;13.20;2.55;;;7.20;99.90;;;;;;5126336;27;20036;-71
2023/03/04 12:50:01;;;;;;;17.20;2.30;;;7.20;99.90;;;;;;5125514;27;20109;-71
2023/03/04 12:52:48;;;;;;;12.20;1.75;;;7.20;99.90;;;;;;5110459;28;20044;-71
2023/03/04 12:55:18;;;;;;;13.57;2.90;;;7.20;99.90;;;;;;5090130;28;20118;-71
2023/03/04 12:57:45;;;;;;;14.70;2.92;;;7.10;99.90;;;;;;5087261;28;20310;-71
2023/03/04 13:00:38;;;;;;;17.92;2.85;;;7.20;99.90;;;;;;5121454;27;20044;-71